sensor_id;sensor_type;location;lat;lon;timestamp;P1;durP1;ratioP1;P2;durP2;ratioP2
8580;SDS011;4328;48.622;9.230;2023-05-10T00:00:26;2.23;;;2.00;;
8580;SDS011;4328;48.622;9.230;2023-05-10T00:02:53;2.40;;;2.20;;
8580;SDS011;4328;48.622;9.230;2023-05-10T00:05:20;2.30;;;2.10;;
8580;SDS011;4328;48.622;9.230;2023-05-10T00:07:47;2.50;;;2.00;;
8580;SDS011;4328;48.622;9.230;2023-05-10T00:10:13;2.17;;;1.90;;
8580;SDS011;4328;48.622;9.230;2023-05-10T00:12:40;2.23;;;2.00;;
8580;SDS011;4328;48.622;9.230;2023-05-10T00:15:09;2.70;;;1.93;;
8580;SDS011;4328;48.622;9.230;2023-05-10T00:17:36;1.80;;;1.70;;
8580;SDS011;4328;48.622;9.230;2023-05-10T00:20:03;2.23;;;1.77;;
8580;SDS011;4328;48.622;9.230;2023-05-10T00:22:30;4.00;;;1.90;;
8580;SDS011;4328;48.622;9.230;2023-05-10T00:24:57;1.60;;;1.50;;
8580;SDS011;4328;48.622;9.230;2023-05-10T00:27:24;1.87;;;1.47;;
8580;SDS011;4328;48.622;9.230;2023-05-10T00:29:51;1.83;;;1.60;;
8580;SDS011;4328;48.622;9.230;2023-05-10T00:32:19;1.80;;;1.70;;
8580;SDS011;4328;48.622;9.230;2023-05-10T00:34:46;1.67;;;1.50;;
8580;SDS011;4328;48.622;9.230;2023-05-10T00:37:12;1.47;;;1.40;;
8580;SDS011;4328;48.622;9.230;2023-05-10T00:39:39;1.23;;;1.10;;
8580;SDS011;4328;48.622;9.230;2023-05-10T00:42:06;3.93;;;1.27;;
8580;SDS011;4328;48.622;9.230;2023-05-10T00:44:32;1.57;;;1.20;;
8580;SDS011;4328;48.622;9.230;2023-05-10T00:46:59;1.30;;;1.20;;
8580;SDS011;4328;48.622;9.230;2023-05-10T00:49:27;1.40;;;1.20;;
8580;SDS011;4328;48.622;9.230;2023-05-10T00:51:54;1.30;;;1.20;;
8580;SDS011;4328;48.622;9.230;2023-05-10T00:54:22;1.93;;;1.50;;
8580;SDS011;4328;48.622;9.230;2023-05-10T00:56:48;1.50;;;1.40;;
8580;SDS011;4328;48.622;9.230;2023-05-10T00:59:15;1.20;;;1.20;;
8580;SDS011;4328;48.622;9.230;2023-05-10T01:01:42;1.43;;;1.10;;
8580;SDS011;4328;48.622;9.230;2023-05-10T01:04:10;1.77;;;1.20;;
8580;SDS011;4328;48.622;9.230;2023-05-10T01:06:39;0.80;;;0.80;;
8580;SDS011;4328;48.622;9.230;2023-05-10T01:09:05;2.93;;;0.97;;
8580;SDS011;4328;48.622;9.230;2023-05-10T01:11:32;1.53;;;0.80;;
8580;SDS011;4328;48.622;9.230;2023-05-10T01:13:59;1.50;;;0.87;;
8580;SDS011;4328;48.622;9.230;2023-05-10T01:16:26;1.07;;;0.97;;
8580;SDS011;4328;48.622;9.230;2023-05-10T01:18:55;2.37;;;1.10;;
8580;SDS011;4328;48.622;9.230;2023-05-10T01:21:23;1.87;;;0.90;;
8580;SDS011;4328;48.622;9.230;2023-05-10T01:24:12;0.80;;;0.80;;
8580;SDS011;4328;48.622;9.230;2023-05-10T01:27:17;1.60;;;0.70;;
8580;SDS011;4328;48.622;9.230;2023-05-10T01:32:50;0.80;;;0.80;;
8580;SDS011;4328;48.622;9.230;2023-05-10T01:35:23;1.73;;;0.60;;
8580;SDS011;4328;48.622;9.230;2023-05-10T01:37:59;1.17;;;0.80;;
8580;SDS011;4328;48.622;9.230;2023-05-10T01:40:35;1.77;;;0.70;;
8580;SDS011;4328;48.622;9.230;2023-05-10T01:43:08;0.70;;;0.70;;
8580;SDS011;4328;48.622;9.230;2023-05-10T01:45:45;1.37;;;0.70;;
8580;SDS011;4328;48.622;9.230;2023-05-10T01:48:18;0.80;;;0.80;;
8580;SDS011;4328;48.622;9.230;2023-05-10T01:50:47;1.50;;;0.70;;
8580;SDS011;4328;48.622;9.230;2023-05-10T01:53:17;1.37;;;0.60;;
8580;SDS011;4328;48.622;9.230;2023-05-10T01:55:46;2.90;;;0.70;;
8580;SDS011;4328;48.622;9.230;2023-05-10T01:58:19;3.00;;;1.10;;
8580;SDS011;4328;48.622;9.230;2023-05-10T02:00:49;0.90;;;0.70;;
8580;SDS011;4328;48.622;9.230;2023-05-10T02:03:20;1.43;;;0.70;;
8580;SDS011;4328;48.622;9.230;2023-05-10T02:05:49;1.23;;;0.70;;
8580;SDS011;4328;48.622;9.230;2023-05-10T02:08:18;1.77;;;0.60;;
8580;SDS011;4328;48.622;9.230;2023-05-10T02:10:46;3.07;;;1.10;;
8580;SDS011;4328;48.622;9.230;2023-05-10T02:13:16;3.93;;;0.80;;
8580;SDS011;4328;48.622;9.230;2023-05-10T02:15:45;0.50;;;0.50;;
8580;SDS011;4328;48.622;9.230;2023-05-10T02:18:14;0.43;;;0.43;;
8580;SDS011;4328;48.622;9.230;2023-05-10T02:20:44;0.60;;;0.60;;
8580;SDS011;4328;48.622;9.230;2023-05-10T02:23:12;1.60;;;0.47;;
8580;SDS011;4328;48.622;9.230;2023-05-10T02:25:40;1.50;;;0.60;;
8580;SDS011;4328;48.622;9.230;2023-05-10T02:28:09;0.67;;;0.40;;
8580;SDS011;4328;48.622;9.230;2023-05-10T02:30:37;1.77;;;0.50;;
8580;SDS011;4328;48.622;9.230;2023-05-10T02:33:05;0.53;;;0.53;;
8580;SDS011;4328;48.622;9.230;2023-05-10T02:35:32;4.93;;;0.63;;
8580;SDS011;4328;48.622;9.230;2023-05-10T02:38:01;1.07;;;0.50;;
8580;SDS011;4328;48.622;9.230;2023-05-10T02:40:29;1.13;;;0.43;;
8580;SDS011;4328;48.622;9.230;2023-05-10T02:42:57;0.80;;;0.80;;
8580;SDS011;4328;48.622;9.230;2023-05-10T02:45:29;1.40;;;0.40;;
8580;SDS011;4328;48.622;9.230;2023-05-10T02:47:57;1.30;;;0.50;;
8580;SDS011;4328;48.622;9.230;2023-05-10T02:50:25;1.00;;;0.50;;
8580;SDS011;4328;48.622;9.230;2023-05-10T02:52:54;2.13;;;0.60;;
8580;SDS011;4328;48.622;9.230;2023-05-10T02:55:27;1.03;;;0.50;;
8580;SDS011;4328;48.622;9.230;2023-05-10T02:57:59;2.77;;;0.77;;
8580;SDS011;4328;48.622;9.230;2023-05-10T03:00:27;1.30;;;0.50;;
8580;SDS011;4328;48.622;9.230;2023-05-10T03:02:54;0.40;;;0.40;;
8580;SDS011;4328;48.622;9.230;2023-05-10T03:05:21;0.77;;;0.50;;
8580;SDS011;4328;48.622;9.230;2023-05-10T03:07:48;3.53;;;0.63;;
8580;SDS011;4328;48.622;9.230;2023-05-10T03:10:15;0.63;;;0.40;;
8580;SDS011;4328;48.622;9.230;2023-05-10T03:12:50;0.63;;;0.40;;
8580;SDS011;4328;48.622;9.230;2023-05-10T03:15:25;2.60;;;0.80;;
8580;SDS011;4328;48.622;9.230;2023-05-10T03:18:04;1.07;;;0.57;;
8580;SDS011;4328;48.622;9.230;2023-05-10T03:20:36;0.87;;;0.67;;
8580;SDS011;4328;48.622;9.230;2023-05-10T03:23:09;2.30;;;0.60;;
8580;SDS011;4328;48.622;9.230;2023-05-10T03:25:39;0.47;;;0.47;;
8580;SDS011;4328;48.622;9.230;2023-05-10T03:28:10;1.97;;;0.53;;
8580;SDS011;4328;48.622;9.230;2023-05-10T03:30:38;0.50;;;0.50;;
8580;SDS011;4328;48.622;9.230;2023-05-10T03:33:06;2.50;;;0.57;;
8580;SDS011;4328;48.622;9.230;2023-05-10T03:35:33;0.83;;;0.70;;
8580;SDS011;4328;48.622;9.230;2023-05-10T03:38:00;0.60;;;0.60;;
8580;SDS011;4328;48.622;9.230;2023-05-10T03:40:27;0.50;;;0.50;;
8580;SDS011;4328;48.622;9.230;2023-05-10T03:42:56;2.20;;;1.20;;
8580;SDS011;4328;48.622;9.230;2023-05-10T03:45:24;0.60;;;0.60;;
8580;SDS011;4328;48.622;9.230;2023-05-10T03:47:51;2.60;;;0.50;;
8580;SDS011;4328;48.622;9.230;2023-05-10T03:50:18;0.60;;;0.60;;
8580;SDS011;4328;48.622;9.230;2023-05-10T03:52:44;0.80;;;0.47;;
8580;SDS011;4328;48.622;9.230;2023-05-10T03:55:11;0.87;;;0.70;;
8580;SDS011;4328;48.622;9.230;2023-05-10T03:57:38;2.57;;;0.80;;
8580;SDS011;4328;48.622;9.230;2023-05-10T04:00:05;1.77;;;0.70;;
8580;SDS011;4328;48.622;9.230;2023-05-10T04:02:33;0.60;;;0.60;;
8580;SDS011;4328;48.622;9.230;2023-05-10T04:05:00;3.13;;;0.70;;
8580;SDS011;4328;48.622;9.230;2023-05-10T04:07:27;2.43;;;0.70;;
8580;SDS011;4328;48.622;9.230;2023-05-10T04:09:54;0.87;;;0.70;;
8580;SDS011;4328;48.622;9.230;2023-05-10T04:12:20;0.80;;;0.80;;
8580;SDS011;4328;48.622;9.230;2023-05-10T04:14:47;0.60;;;0.60;;
8580;SDS011;4328;48.622;9.230;2023-05-10T04:17:14;0.87;;;0.70;;
8580;SDS011;4328;48.622;9.230;2023-05-10T04:19:42;2.93;;;0.93;;
8580;SDS011;4328;48.622;9.230;2023-05-10T04:22:08;0.60;;;0.60;;
8580;SDS011;4328;48.622;9.230;2023-05-10T04:24:35;2.60;;;0.80;;
8580;SDS011;4328;48.622;9.230;2023-05-10T04:27:01;1.23;;;0.90;;
8580;SDS011;4328;48.622;9.230;2023-05-10T04:29:28;2.83;;;1.00;;
8580;SDS011;4328;48.622;9.230;2023-05-10T04:31:56;4.43;;;0.97;;
8580;SDS011;4328;48.622;9.230;2023-05-10T04:34:22;0.83;;;0.80;;
8580;SDS011;4328;48.622;9.230;2023-05-10T04:36:50;1.53;;;1.10;;
8580;SDS011;4328;48.622;9.230;2023-05-10T04:39:17;3.43;;;0.90;;
8580;SDS011;4328;48.622;9.230;2023-05-10T04:41:44;3.00;;;1.10;;
8580;SDS011;4328;48.622;9.230;2023-05-10T04:44:10;1.90;;;1.10;;
8580;SDS011;4328;48.622;9.230;2023-05-10T04:46:37;2.73;;;1.10;;
8580;SDS011;4328;48.622;9.230;2023-05-10T04:49:03;2.10;;;1.00;;
8580;SDS011;4328;48.622;9.230;2023-05-10T04:51:30;1.77;;;1.10;;
8580;SDS011;4328;48.622;9.230;2023-05-10T04:53:58;1.57;;;1.10;;
8580;SDS011;4328;48.622;9.230;2023-05-10T04:56:25;4.40;;;1.10;;
8580;SDS011;4328;48.622;9.230;2023-05-10T04:58:52;2.60;;;1.10;;
8580;SDS011;4328;48.622;9.230;2023-05-10T05:01:18;2.60;;;0.90;;
8580;SDS011;4328;48.622;9.230;2023-05-10T05:03:45;2.33;;;1.00;;
8580;SDS011;4328;48.622;9.230;2023-05-10T05:06:11;1.83;;;1.10;;
8580;SDS011;4328;48.622;9.230;2023-05-10T05:08:38;3.03;;;1.13;;
8580;SDS011;4328;48.622;9.230;2023-05-10T05:11:06;1.53;;;1.10;;
8580;SDS011;4328;48.622;9.230;2023-05-10T05:13:33;1.37;;;0.97;;
8580;SDS011;4328;48.622;9.230;2023-05-10T05:16:00;2.43;;;0.80;;
8580;SDS011;4328;48.622;9.230;2023-05-10T05:18:27;2.23;;;1.20;;
8580;SDS011;4328;48.622;9.230;2023-05-10T05:20:53;1.00;;;1.00;;
8580;SDS011;4328;48.622;9.230;2023-05-10T05:23:20;1.43;;;1.10;;
8580;SDS011;4328;48.622;9.230;2023-05-10T05:25:49;1.10;;;1.00;;
8580;SDS011;4328;48.622;9.230;2023-05-10T05:28:18;1.70;;;0.90;;
8580;SDS011;4328;48.622;9.230;2023-05-10T05:30:45;1.20;;;1.10;;
8580;SDS011;4328;48.622;9.230;2023-05-10T05:33:12;3.90;;;1.10;;
8580;SDS011;4328;48.622;9.230;2023-05-10T05:35:40;0.97;;;0.97;;
8580;SDS011;4328;48.622;9.230;2023-05-10T05:38:07;3.53;;;1.10;;
8580;SDS011;4328;48.622;9.230;2023-05-10T05:40:34;1.90;;;1.00;;
8580;SDS011;4328;48.622;9.230;2023-05-10T05:43:01;1.03;;;1.03;;
8580;SDS011;4328;48.622;9.230;2023-05-10T05:45:29;0.90;;;0.90;;
8580;SDS011;4328;48.622;9.230;2023-05-10T05:47:56;3.13;;;1.23;;
8580;SDS011;4328;48.622;9.230;2023-05-10T05:50:22;4.77;;;1.10;;
8580;SDS011;4328;48.622;9.230;2023-05-10T05:52:49;1.20;;;1.07;;
8580;SDS011;4328;48.622;9.230;2023-05-10T05:55:16;1.33;;;0.93;;
8580;SDS011;4328;48.622;9.230;2023-05-10T05:57:42;1.10;;;1.00;;
8580;SDS011;4328;48.622;9.230;2023-05-10T06:00:09;1.00;;;1.00;;
8580;SDS011;4328;48.622;9.230;2023-05-10T06:02:38;1.60;;;1.17;;
8580;SDS011;4328;48.622;9.230;2023-05-10T06:05:05;2.33;;;1.00;;
8580;SDS011;4328;48.622;9.230;2023-05-10T06:07:32;2.77;;;1.07;;
8580;SDS011;4328;48.622;9.230;2023-05-10T06:09:59;0.93;;;0.93;;
8580;SDS011;4328;48.622;9.230;2023-05-10T06:12:26;1.90;;;1.00;;
8580;SDS011;4328;48.622;9.230;2023-05-10T06:14:52;2.27;;;0.93;;
8580;SDS011;4328;48.622;9.230;2023-05-10T06:17:19;0.80;;;0.80;;
8580;SDS011;4328;48.622;9.230;2023-05-10T06:19:48;0.90;;;0.90;;
8580;SDS011;4328;48.622;9.230;2023-05-10T06:22:14;1.83;;;0.90;;
8580;SDS011;4328;48.622;9.230;2023-05-10T06:24:41;1.07;;;0.97;;
8580;SDS011;4328;48.622;9.230;2023-05-10T06:27:08;0.97;;;0.87;;
8580;SDS011;4328;48.622;9.230;2023-05-10T06:29:35;1.43;;;1.00;;
8580;SDS011;4328;48.622;9.230;2023-05-10T06:32:01;1.17;;;0.80;;
8580;SDS011;4328;48.622;9.230;2023-05-10T06:34:28;1.10;;;1.00;;
8580;SDS011;4328;48.622;9.230;2023-05-10T06:36:56;1.90;;;0.80;;
8580;SDS011;4328;48.622;9.230;2023-05-10T06:39:23;1.57;;;0.77;;
8580;SDS011;4328;48.622;9.230;2023-05-10T06:41:50;1.10;;;1.00;;
8580;SDS011;4328;48.622;9.230;2023-05-10T06:44:17;0.90;;;0.90;;
8580;SDS011;4328;48.622;9.230;2023-05-10T06:46:43;2.40;;;0.90;;
8580;SDS011;4328;48.622;9.230;2023-05-10T06:49:10;1.63;;;1.00;;
8580;SDS011;4328;48.622;9.230;2023-05-10T06:51:37;0.80;;;0.80;;
8580;SDS011;4328;48.622;9.230;2023-05-10T06:54:05;1.63;;;0.80;;
8580;SDS011;4328;48.622;9.230;2023-05-10T06:56:31;0.87;;;0.80;;
8580;SDS011;4328;48.622;9.230;2023-05-10T06:58:58;1.10;;;1.00;;
8580;SDS011;4328;48.622;9.230;2023-05-10T07:01:25;1.43;;;0.90;;
8580;SDS011;4328;48.622;9.230;2023-05-10T07:03:51;1.63;;;0.90;;
8580;SDS011;4328;48.622;9.230;2023-05-10T07:06:18;1.50;;;0.90;;
8580;SDS011;4328;48.622;9.230;2023-05-10T07:08:45;1.77;;;0.80;;
8580;SDS011;4328;48.622;9.230;2023-05-10T07:11:13;0.70;;;0.70;;
8580;SDS011;4328;48.622;9.230;2023-05-10T07:13:39;1.00;;;1.00;;
8580;SDS011;4328;48.622;9.230;2023-05-10T07:16:09;2.17;;;0.87;;
8580;SDS011;4328;48.622;9.230;2023-05-10T07:18:36;0.87;;;0.87;;
8580;SDS011;4328;48.622;9.230;2023-05-10T07:21:02;0.70;;;0.70;;
8580;SDS011;4328;48.622;9.230;2023-05-10T07:23:29;1.77;;;0.93;;
8580;SDS011;4328;48.622;9.230;2023-05-10T07:25:56;0.83;;;0.70;;
8580;SDS011;4328;48.622;9.230;2023-05-10T07:28:24;1.30;;;1.03;;
8580;SDS011;4328;48.622;9.230;2023-05-10T07:30:51;1.03;;;0.90;;
8580;SDS011;4328;48.622;9.230;2023-05-10T07:33:19;2.80;;;0.70;;
8580;SDS011;4328;48.622;9.230;2023-05-10T07:35:45;1.00;;;0.90;;
8580;SDS011;4328;48.622;9.230;2023-05-10T07:38:12;1.33;;;0.73;;
8580;SDS011;4328;48.622;9.230;2023-05-10T07:40:39;1.13;;;0.80;;
8580;SDS011;4328;48.622;9.230;2023-05-10T07:43:06;2.37;;;0.90;;
8580;SDS011;4328;48.622;9.230;2023-05-10T07:45:34;1.03;;;0.80;;
8580;SDS011;4328;48.622;9.230;2023-05-10T07:48:00;1.67;;;0.80;;
8580;SDS011;4328;48.622;9.230;2023-05-10T07:50:27;2.03;;;0.80;;
8580;SDS011;4328;48.622;9.230;2023-05-10T07:52:54;2.60;;;0.70;;
8580;SDS011;4328;48.622;9.230;2023-05-10T07:55:21;1.27;;;0.77;;
8580;SDS011;4328;48.622;9.230;2023-05-10T07:57:48;1.27;;;1.10;;
8580;SDS011;4328;48.622;9.230;2023-05-10T08:00:16;2.37;;;1.17;;
8580;SDS011;4328;48.622;9.230;2023-05-10T08:02:46;0.87;;;0.80;;
8580;SDS011;4328;48.622;9.230;2023-05-10T08:05:13;2.83;;;0.80;;
8580;SDS011;4328;48.622;9.230;2023-05-10T08:07:40;1.83;;;1.67;;
8580;SDS011;4328;48.622;9.230;2023-05-10T08:10:08;0.70;;;0.70;;
8580;SDS011;4328;48.622;9.230;2023-05-10T08:12:36;0.70;;;0.70;;
8580;SDS011;4328;48.622;9.230;2023-05-10T08:15:02;0.80;;;0.80;;
8580;SDS011;4328;48.622;9.230;2023-05-10T08:17:30;0.80;;;0.80;;
8580;SDS011;4328;48.622;9.230;2023-05-10T08:20:02;0.97;;;0.70;;
8580;SDS011;4328;48.622;9.230;2023-05-10T08:22:35;0.73;;;0.73;;
8580;SDS011;4328;48.622;9.230;2023-05-10T08:25:02;1.70;;;0.60;;
8580;SDS011;4328;48.622;9.230;2023-05-10T08:27:29;0.90;;;0.80;;
8580;SDS011;4328;48.622;9.230;2023-05-10T08:29:55;0.60;;;0.60;;
8580;SDS011;4328;48.622;9.230;2023-05-10T08:32:22;0.50;;;0.50;;
8580;SDS011;4328;48.622;9.230;2023-05-10T08:34:49;0.50;;;0.50;;
8580;SDS011;4328;48.622;9.230;2023-05-10T08:37:17;0.63;;;0.60;;
8580;SDS011;4328;48.622;9.230;2023-05-10T08:39:43;2.63;;;0.70;;
8580;SDS011;4328;48.622;9.230;2023-05-10T08:42:12;1.83;;;0.60;;
8580;SDS011;4328;48.622;9.230;2023-05-10T08:44:45;0.50;;;0.50;;
8580;SDS011;4328;48.622;9.230;2023-05-10T08:47:15;1.73;;;0.80;;
8580;SDS011;4328;48.622;9.230;2023-05-10T08:49:44;0.63;;;0.60;;
8580;SDS011;4328;48.622;9.230;2023-05-10T08:52:13;0.93;;;0.57;;
8580;SDS011;4328;48.622;9.230;2023-05-10T08:54:43;1.57;;;0.67;;
8580;SDS011;4328;48.622;9.230;2023-05-10T08:57:10;0.50;;;0.50;;
8580;SDS011;4328;48.622;9.230;2023-05-10T08:59:36;0.60;;;0.60;;
8580;SDS011;4328;48.622;9.230;2023-05-10T09:02:04;2.67;;;0.70;;
8580;SDS011;4328;48.622;9.230;2023-05-10T09:04:31;1.40;;;0.60;;
8580;SDS011;4328;48.622;9.230;2023-05-10T09:06:58;0.63;;;0.60;;
8580;SDS011;4328;48.622;9.230;2023-05-10T09:09:26;0.97;;;0.60;;
8580;SDS011;4328;48.622;9.230;2023-05-10T09:11:54;1.27;;;0.60;;
8580;SDS011;4328;48.622;9.230;2023-05-10T09:14:20;1.50;;;0.57;;
8580;SDS011;4328;48.622;9.230;2023-05-10T09:16:49;0.40;;;0.40;;
8580;SDS011;4328;48.622;9.230;2023-05-10T09:19:16;0.50;;;0.50;;
8580;SDS011;4328;48.622;9.230;2023-05-10T09:21:43;0.73;;;0.40;;
8580;SDS011;4328;48.622;9.230;2023-05-10T09:24:10;0.67;;;0.43;;
8580;SDS011;4328;48.622;9.230;2023-05-10T09:26:44;1.40;;;0.60;;
8580;SDS011;4328;48.622;9.230;2023-05-10T09:29:12;2.27;;;0.60;;
8580;SDS011;4328;48.622;9.230;2023-05-10T09:31:43;0.83;;;0.50;;
8580;SDS011;4328;48.622;9.230;2023-05-10T09:34:13;0.47;;;0.30;;
8580;SDS011;4328;48.622;9.230;2023-05-10T09:36:52;0.73;;;0.40;;
8580;SDS011;4328;48.622;9.230;2023-05-10T09:39:20;0.33;;;0.30;;
8580;SDS011;4328;48.622;9.230;2023-05-10T09:41:48;0.77;;;0.57;;
8580;SDS011;4328;48.622;9.230;2023-05-10T09:44:16;1.47;;;0.53;;
8580;SDS011;4328;48.622;9.230;2023-05-10T09:46:48;1.63;;;0.50;;
8580;SDS011;4328;48.622;9.230;2023-05-10T09:49:15;0.43;;;0.43;;
8580;SDS011;4328;48.622;9.230;2023-05-10T09:51:42;2.10;;;0.40;;
8580;SDS011;4328;48.622;9.230;2023-05-10T09:54:09;0.30;;;0.30;;
8580;SDS011;4328;48.622;9.230;2023-05-10T09:56:37;0.30;;;0.30;;
8580;SDS011;4328;48.622;9.230;2023-05-10T09:59:07;0.40;;;0.40;;
8580;SDS011;4328;48.622;9.230;2023-05-10T10:01:36;0.40;;;0.37;;
8580;SDS011;4328;48.622;9.230;2023-05-10T10:04:03;0.80;;;0.40;;
8580;SDS011;4328;48.622;9.230;2023-05-10T10:06:34;0.30;;;0.30;;
8580;SDS011;4328;48.622;9.230;2023-05-10T10:09:01;0.37;;;0.37;;
8580;SDS011;4328;48.622;9.230;2023-05-10T10:11:28;1.70;;;0.70;;
8580;SDS011;4328;48.622;9.230;2023-05-10T10:13:55;0.87;;;0.40;;
8580;SDS011;4328;48.622;9.230;2023-05-10T10:16:23;0.33;;;0.30;;
8580;SDS011;4328;48.622;9.230;2023-05-10T10:18:51;0.33;;;0.33;;
8580;SDS011;4328;48.622;9.230;2023-05-10T10:21:17;0.30;;;0.30;;
8580;SDS011;4328;48.622;9.230;2023-05-10T10:23:45;1.03;;;0.40;;
8580;SDS011;4328;48.622;9.230;2023-05-10T10:26:12;0.67;;;0.40;;
8580;SDS011;4328;48.622;9.230;2023-05-10T10:28:41;1.57;;;0.30;;
8580;SDS011;4328;48.622;9.230;2023-05-10T10:31:17;0.37;;;0.37;;
8580;SDS011;4328;48.622;9.230;2023-05-10T10:34:01;2.20;;;0.30;;
8580;SDS011;4328;48.622;9.230;2023-05-10T10:36:31;2.50;;;0.50;;
8580;SDS011;4328;48.622;9.230;2023-05-10T10:39:00;1.80;;;0.40;;
8580;SDS011;4328;48.622;9.230;2023-05-10T10:41:31;0.40;;;0.30;;
8580;SDS011;4328;48.622;9.230;2023-05-10T10:47:06;0.30;;;0.30;;
8580;SDS011;4328;48.622;9.230;2023-05-10T10:49:51;1.07;;;0.40;;
8580;SDS011;4328;48.622;9.230;2023-05-10T10:52:30;0.30;;;0.30;;
8580;SDS011;4328;48.622;9.230;2023-05-10T10:54:59;1.10;;;0.40;;
8580;SDS011;4328;48.622;9.230;2023-05-10T10:57:28;1.37;;;0.40;;
8580;SDS011;4328;48.622;9.230;2023-05-10T11:02:47;0.37;;;0.37;;
8580;SDS011;4328;48.622;9.230;2023-05-10T11:08:12;0.50;;;0.50;;
8580;SDS011;4328;48.622;9.230;2023-05-10T11:13:37;2.27;;;0.50;;
8580;SDS011;4328;48.622;9.230;2023-05-10T11:16:15;0.40;;;0.40;;
8580;SDS011;4328;48.622;9.230;2023-05-10T11:21:45;1.30;;;0.50;;
8580;SDS011;4328;48.622;9.230;2023-05-10T11:24:13;0.50;;;0.47;;
8580;SDS011;4328;48.622;9.230;2023-05-10T11:26:40;0.40;;;0.40;;
8580;SDS011;4328;48.622;9.230;2023-05-10T11:29:08;0.50;;;0.37;;
8580;SDS011;4328;48.622;9.230;2023-05-10T11:31:34;1.63;;;0.70;;
8580;SDS011;4328;48.622;9.230;2023-05-10T11:34:01;1.97;;;0.50;;
8580;SDS011;4328;48.622;9.230;2023-05-10T11:36:28;1.87;;;0.73;;
8580;SDS011;4328;48.622;9.230;2023-05-10T11:38:57;0.67;;;0.67;;
8580;SDS011;4328;48.622;9.230;2023-05-10T11:41:24;3.80;;;0.60;;
8580;SDS011;4328;48.622;9.230;2023-05-10T11:43:53;1.13;;;0.70;;
8580;SDS011;4328;48.622;9.230;2023-05-10T11:46:21;1.30;;;0.80;;
8580;SDS011;4328;48.622;9.230;2023-05-10T11:48:50;1.73;;;0.80;;
8580;SDS011;4328;48.622;9.230;2023-05-10T11:51:19;2.27;;;0.90;;
8580;SDS011;4328;48.622;9.230;2023-05-10T11:53:47;2.20;;;1.00;;
8580;SDS011;4328;48.622;9.230;2023-05-10T11:56:17;1.30;;;0.70;;
8580;SDS011;4328;48.622;9.230;2023-05-10T11:58:49;0.77;;;0.43;;
8580;SDS011;4328;48.622;9.230;2023-05-10T12:01:20;2.10;;;0.90;;
8580;SDS011;4328;48.622;9.230;2023-05-10T12:03:47;1.40;;;0.70;;
8580;SDS011;4328;48.622;9.230;2023-05-10T12:06:15;2.30;;;0.83;;
8580;SDS011;4328;48.622;9.230;2023-05-10T12:08:44;1.97;;;1.83;;
8580;SDS011;4328;48.622;9.230;2023-05-10T12:11:11;4.03;;;3.43;;
8580;SDS011;4328;48.622;9.230;2023-05-10T12:13:42;2.20;;;1.00;;
8580;SDS011;4328;48.622;9.230;2023-05-10T12:16:14;1.33;;;0.90;;
8580;SDS011;4328;48.622;9.230;2023-05-10T12:18:42;0.73;;;0.73;;
8580;SDS011;4328;48.622;9.230;2023-05-10T12:21:09;2.13;;;0.90;;
8580;SDS011;4328;48.622;9.230;2023-05-10T12:23:36;0.87;;;0.73;;
8580;SDS011;4328;48.622;9.230;2023-05-10T12:26:03;1.03;;;0.60;;
8580;SDS011;4328;48.622;9.230;2023-05-10T12:28:30;2.70;;;0.90;;
8580;SDS011;4328;48.622;9.230;2023-05-10T12:30:59;1.90;;;0.80;;
8580;SDS011;4328;48.622;9.230;2023-05-10T12:33:27;1.17;;;0.67;;
8580;SDS011;4328;48.622;9.230;2023-05-10T12:36:02;2.63;;;0.80;;
8580;SDS011;4328;48.622;9.230;2023-05-10T12:38:31;1.27;;;1.00;;
8580;SDS011;4328;48.622;9.230;2023-05-10T12:41:00;2.23;;;0.60;;
8580;SDS011;4328;48.622;9.230;2023-05-10T12:43:29;2.23;;;0.87;;
8580;SDS011;4328;48.622;9.230;2023-05-10T12:45:56;0.90;;;0.60;;
8580;SDS011;4328;48.622;9.230;2023-05-10T12:48:24;2.10;;;0.70;;
8580;SDS011;4328;48.622;9.230;2023-05-10T12:50:53;0.53;;;0.53;;
8580;SDS011;4328;48.622;9.230;2023-05-10T12:53:20;0.80;;;0.77;;
8580;SDS011;4328;48.622;9.230;2023-05-10T12:55:46;0.70;;;0.70;;
8580;SDS011;4328;48.622;9.230;2023-05-10T12:58:13;1.83;;;0.63;;
8580;SDS011;4328;48.622;9.230;2023-05-10T13:00:40;2.10;;;0.80;;
8580;SDS011;4328;48.622;9.230;2023-05-10T13:03:07;1.13;;;0.50;;
8580;SDS011;4328;48.622;9.230;2023-05-10T13:05:36;0.97;;;0.80;;
8580;SDS011;4328;48.622;9.230;2023-05-10T13:08:03;1.50;;;0.60;;
8580;SDS011;4328;48.622;9.230;2023-05-10T13:10:30;0.57;;;0.53;;
8580;SDS011;4328;48.622;9.230;2023-05-10T13:12:57;2.23;;;0.80;;
8580;SDS011;4328;48.622;9.230;2023-05-10T13:15:24;1.40;;;0.80;;
8580;SDS011;4328;48.622;9.230;2023-05-10T13:17:51;0.60;;;0.60;;
8580;SDS011;4328;48.622;9.230;2023-05-10T13:20:19;1.23;;;0.80;;
8580;SDS011;4328;48.622;9.230;2023-05-10T13:22:47;0.70;;;0.70;;
8580;SDS011;4328;48.622;9.230;2023-05-10T13:25:13;0.93;;;0.60;;
8580;SDS011;4328;48.622;9.230;2023-05-10T13:27:43;2.50;;;0.70;;
8580;SDS011;4328;48.622;9.230;2023-05-10T13:30:09;1.03;;;0.70;;
8580;SDS011;4328;48.622;9.230;2023-05-10T13:32:37;1.60;;;0.70;;
8580;SDS011;4328;48.622;9.230;2023-05-10T13:35:04;1.80;;;0.67;;
8580;SDS011;4328;48.622;9.230;2023-05-10T13:37:31;1.03;;;0.60;;
8580;SDS011;4328;48.622;9.230;2023-05-10T13:40:01;1.70;;;0.70;;
8580;SDS011;4328;48.622;9.230;2023-05-10T13:42:29;1.20;;;0.70;;
8580;SDS011;4328;48.622;9.230;2023-05-10T13:44:56;1.43;;;0.80;;
8580;SDS011;4328;48.622;9.230;2023-05-10T13:47:23;0.60;;;0.60;;
8580;SDS011;4328;48.622;9.230;2023-05-10T13:49:50;2.93;;;0.80;;
8580;SDS011;4328;48.622;9.230;2023-05-10T13:52:16;1.03;;;0.60;;
8580;SDS011;4328;48.622;9.230;2023-05-10T13:54:43;0.90;;;0.60;;
8580;SDS011;4328;48.622;9.230;2023-05-10T13:57:12;0.70;;;0.70;;
8580;SDS011;4328;48.622;9.230;2023-05-10T13:59:39;2.20;;;0.93;;
8580;SDS011;4328;48.622;9.230;2023-05-10T14:02:05;1.87;;;0.80;;
8580;SDS011;4328;48.622;9.230;2023-05-10T14:04:32;2.93;;;0.60;;
8580;SDS011;4328;48.622;9.230;2023-05-10T14:07:00;0.70;;;0.70;;
8580;SDS011;4328;48.622;9.230;2023-05-10T14:09:27;1.70;;;0.70;;
8580;SDS011;4328;48.622;9.230;2023-05-10T14:11:53;1.63;;;0.70;;
8580;SDS011;4328;48.622;9.230;2023-05-10T14:14:22;2.97;;;0.87;;
8580;SDS011;4328;48.622;9.230;2023-05-10T14:16:48;0.77;;;0.60;;
8580;SDS011;4328;48.622;9.230;2023-05-10T14:19:15;0.70;;;0.70;;
8580;SDS011;4328;48.622;9.230;2023-05-10T14:21:42;1.30;;;0.70;;
8580;SDS011;4328;48.622;9.230;2023-05-10T14:24:09;1.50;;;0.80;;
8580;SDS011;4328;48.622;9.230;2023-05-10T14:26:35;1.13;;;0.70;;
8580;SDS011;4328;48.622;9.230;2023-05-10T14:29:02;1.43;;;0.70;;
8580;SDS011;4328;48.622;9.230;2023-05-10T14:31:30;1.17;;;0.67;;
8580;SDS011;4328;48.622;9.230;2023-05-10T14:33:57;1.47;;;0.70;;
8580;SDS011;4328;48.622;9.230;2023-05-10T14:36:24;1.33;;;0.70;;
8580;SDS011;4328;48.622;9.230;2023-05-10T14:38:50;2.30;;;0.60;;
8580;SDS011;4328;48.622;9.230;2023-05-10T14:41:17;0.97;;;0.53;;
8580;SDS011;4328;48.622;9.230;2023-05-10T14:43:44;0.67;;;0.60;;
8580;SDS011;4328;48.622;9.230;2023-05-10T14:46:10;0.83;;;0.80;;
8580;SDS011;4328;48.622;9.230;2023-05-10T14:48:39;2.40;;;0.80;;
8580;SDS011;4328;48.622;9.230;2023-05-10T14:51:05;1.13;;;0.70;;
8580;SDS011;4328;48.622;9.230;2023-05-10T14:53:32;1.67;;;0.70;;
8580;SDS011;4328;48.622;9.230;2023-05-10T14:55:59;0.83;;;0.63;;
8580;SDS011;4328;48.622;9.230;2023-05-10T14:58:26;1.40;;;0.80;;
8580;SDS011;4328;48.622;9.230;2023-05-10T15:00:53;0.53;;;0.53;;
8580;SDS011;4328;48.622;9.230;2023-05-10T15:03:20;1.17;;;0.60;;
8580;SDS011;4328;48.622;9.230;2023-05-10T15:05:48;0.70;;;0.70;;
8580;SDS011;4328;48.622;9.230;2023-05-10T15:08:15;1.40;;;0.70;;
8580;SDS011;4328;48.622;9.230;2023-05-10T15:10:41;0.97;;;0.70;;
8580;SDS011;4328;48.622;9.230;2023-05-10T15:13:08;0.60;;;0.60;;
8580;SDS011;4328;48.622;9.230;2023-05-10T15:15:35;0.73;;;0.70;;
8580;SDS011;4328;48.622;9.230;2023-05-10T15:18:01;1.83;;;0.80;;
8580;SDS011;4328;48.622;9.230;2023-05-10T15:20:29;0.70;;;0.60;;
8580;SDS011;4328;48.622;9.230;2023-05-10T15:22:57;1.03;;;0.60;;
8580;SDS011;4328;48.622;9.230;2023-05-10T15:25:24;0.97;;;0.60;;
8580;SDS011;4328;48.622;9.230;2023-05-10T15:27:51;2.60;;;0.70;;
8580;SDS011;4328;48.622;9.230;2023-05-10T15:30:18;0.60;;;0.60;;
8580;SDS011;4328;48.622;9.230;2023-05-10T15:32:44;0.60;;;0.60;;
8580;SDS011;4328;48.622;9.230;2023-05-10T15:35:11;1.10;;;0.80;;
8580;SDS011;4328;48.622;9.230;2023-05-10T15:37:40;1.00;;;0.80;;